Time;durP1;ratioP1;P1;durP2;ratioP2;P2;SDS_P1;SDS_P2;PMS_P1;PMS_P2;Temp;Humidity;BMP_temperature;BMP_pressure;BME280_temperature;BME280_humidity;BME280_pressure;Samples;Min_cycle;Max_cycle;Signal;HPM_P1;HPM_P2
2022/06/30 00:00:42;;;;;;;721.72;667.80;;;15.90;99.90;;;;;;5065064;28;20029;-80
2022/06/30 00:03:08;;;;;;;575.85;534.05;;;15.90;99.90;;;;;;5068896;28;20040;-81
2022/06/30 00:05:34;;;;;;;636.88;590.03;;;15.90;99.90;;;;;;5060856;28;20032;-80
2022/06/30 00:07:59;;;;;;;611.58;566.67;;;15.90;99.90;;;;;;5079426;28;20025;-81
2022/06/30 00:10:25;;;;;;;621.97;577.33;;;15.90;99.90;;;;;;5080595;28;20016;-82
2022/06/30 00:12:51;;;;;;;648.03;600.10;;;15.90;99.90;;;;;;5057463;28;20530;-81
2022/06/30 00:15:17;;;;;;;650.90;603.20;;;15.90;99.90;;;;;;5089588;28;20043;-81
2022/06/30 00:17:43;;;;;;;654.08;606.45;;;15.90;99.90;;;;;;5073236;28;20040;-80
2022/06/30 00:20:09;;;;;;;636.90;590.30;;;15.90;99.90;;;;;;5074867;28;20510;-82
2022/06/30 00:22:34;;;;;;;654.85;605.78;;;16.00;99.90;;;;;;5073568;28;20502;-80
2022/06/30 00:25:01;;;;;;;681.75;631.72;;;15.90;99.90;;;;;;5056801;28;20036;-81
2022/06/30 00:27:26;;;;;;;675.35;625.30;;;15.80;99.90;;;;;;5069599;28;20020;-81
2022/06/30 00:29:52;;;;;;;676.42;625.30;;;15.80;99.90;;;;;;5051920;28;20036;-80
2022/06/30 00:32:18;;;;;;;673.10;622.80;;;15.90;99.90;;;;;;5069247;28;20033;-82
2022/06/30 00:34:44;;;;;;;662.63;612.97;;;15.80;99.90;;;;;;5074121;28;20491;-81
2022/06/30 00:37:09;;;;;;;614.63;568.90;;;15.80;99.90;;;;;;5078813;28;20578;-81
2022/06/30 00:39:35;;;;;;;631.40;584.33;;;15.70;99.90;;;;;;5074970;28;20039;-81
2022/06/30 00:42:01;;;;;;;631.92;585.10;;;15.70;99.90;;;;;;5073830;28;20464;-80
2022/06/30 00:44:27;;;;;;;635.13;587.75;;;15.70;99.90;;;;;;5074344;28;20152;-84
2022/06/30 00:46:53;;;;;;;635.85;589.63;;;15.50;99.90;;;;;;5051736;28;20933;-80
2022/06/30 00:49:20;;;;;;;606.22;562.08;;;15.40;99.90;;;;;;5072576;28;20028;-81
2022/06/30 00:51:46;;;;;;;588.17;545.15;;;15.40;99.90;;;;;;5065747;28;20020;-80
2022/06/30 00:54:12;;;;;;;662.20;611.88;;;15.30;99.90;;;;;;5066271;28;20032;-81
2022/06/30 00:56:42;;;;;;;612.90;568.75;;;15.30;99.90;;;;;;5071734;28;20111;-81
2022/06/30 00:59:12;;;;;;;556.80;516.90;;;15.30;99.90;;;;;;5076393;28;20052;-82
2022/06/30 01:01:38;;;;;;;558.08;518.33;;;15.30;99.90;;;;;;5063883;28;20040;-81
2022/06/30 01:04:06;;;;;;;644.08;594.72;;;15.30;99.90;;;;;;5075351;28;20078;-82
2022/06/30 01:06:32;;;;;;;616.88;571.08;;;15.30;99.90;;;;;;5074516;28;20813;-81
2022/06/30 01:08:58;;;;;;;650.58;600.92;;;15.40;99.90;;;;;;5075241;28;20032;-81
2022/06/30 01:14:08;;;;;;;545.75;506.00;;;15.30;99.90;;;;;;5072596;28;20067;-82
2022/06/30 01:16:37;;;;;;;539.38;499.67;;;15.20;99.90;;;;;;5075410;28;20060;-80
2022/06/30 01:19:02;;;;;;;629.53;584.17;;;15.30;99.90;;;;;;5076550;28;20035;-80
2022/06/30 01:21:28;;;;;;;630.15;583.75;;;15.10;99.90;;;;;;5069781;28;20457;-80
2022/06/30 01:23:55;;;;;;;615.83;570.28;;;15.10;99.90;;;;;;5068985;28;20082;-82
2022/06/30 01:26:27;;;;;;;578.08;535.67;;;15.00;99.90;;;;;;5073951;28;20063;-82
2022/06/30 01:28:52;;;;;;;582.75;540.33;;;15.00;99.90;;;;;;5071163;28;21461;-80
2022/06/30 01:31:18;;;;;;;608.15;563.75;;;15.00;99.90;;;;;;5067279;28;20041;-80
2022/06/30 01:33:45;;;;;;;578.30;535.72;;;14.90;99.90;;;;;;5070779;28;20028;-82
2022/06/30 01:36:10;;;;;;;574.97;533.92;;;14.90;99.90;;;;;;5080900;28;20028;-81
2022/06/30 01:38:36;;;;;;;525.13;487.65;;;14.80;99.90;;;;;;5075248;28;20496;-80
2022/06/30 01:41:02;;;;;;;525.35;486.80;;;14.80;99.90;;;;;;5076707;28;20042;-80
2022/06/30 01:43:28;;;;;;;551.53;512.15;;;14.80;99.90;;;;;;5076129;28;20027;-80
2022/06/30 01:45:53;;;;;;;560.15;519.67;;;14.90;99.90;;;;;;5074663;28;20505;-81
2022/06/30 01:48:19;;;;;;;639.28;591.08;;;14.90;99.90;;;;;;5079292;28;20120;-81
2022/06/30 01:50:45;;;;;;;568.30;526.80;;;14.80;99.90;;;;;;5076046;28;20112;-81
2022/06/30 01:53:11;;;;;;;541.63;504.25;;;14.90;99.90;;;;;;5073176;28;20029;-81
2022/06/30 01:55:36;;;;;;;578.50;537.00;;;14.70;99.90;;;;;;5079138;28;20317;-87
2022/06/30 01:58:02;;;;;;;549.90;511.17;;;14.70;99.90;;;;;;5063803;28;20040;-82
2022/06/30 02:00:28;;;;;;;591.42;550.05;;;14.60;99.90;;;;;;5070944;28;20027;-80
2022/06/30 02:02:55;;;;;;;574.22;533.22;;;14.70;99.90;;;;;;5068122;28;20036;-80
2022/06/30 02:05:22;;;;;;;563.60;522.05;;;14.80;99.90;;;;;;5088841;28;20104;-81
2022/06/30 02:07:48;;;;;;;546.30;506.42;;;14.80;99.90;;;;;;5079448;28;20045;-83
2022/06/30 02:10:19;;;;;;;524.83;486.58;;;14.90;99.90;;;;;;5079389;28;20039;-82
2022/06/30 02:12:45;;;;;;;580.78;539.78;;;14.80;99.90;;;;;;5062562;28;20040;-80
2022/06/30 02:15:12;;;;;;;587.92;547.53;;;14.70;99.90;;;;;;5081091;28;20032;-80
2022/06/30 02:17:39;;;;;;;572.55;530.80;;;14.70;99.90;;;;;;5079778;28;20052;-83
2022/06/30 02:20:07;;;;;;;560.58;520.30;;;14.60;99.90;;;;;;5072345;28;20029;-82
2022/06/30 02:22:38;;;;;;;588.42;545.78;;;14.70;99.90;;;;;;5076802;28;20581;-81
2022/06/30 02:25:04;;;;;;;;;;;14.70;99.90;;;;;;5066194;28;20037;-80
2022/06/30 02:27:30;;;;;;;413.27;386.05;;;14.70;99.90;;;;;;5060564;28;20371;-82
2022/06/30 02:29:55;;;;;;;520.08;483.88;;;14.70;99.90;;;;;;5071066;28;20533;-81
2022/06/30 02:32:21;;;;;;;538.92;500.02;;;14.80;99.90;;;;;;5061287;28;20032;-80
2022/06/30 02:34:51;;;;;;;574.67;533.70;;;14.70;99.90;;;;;;5075467;28;20035;-80
2022/06/30 02:37:17;;;;;;;556.10;515.70;;;14.70;99.90;;;;;;5080603;28;20036;-80
2022/06/30 02:39:44;;;;;;;551.17;510.98;;;14.70;99.90;;;;;;5072894;28;20063;-86
2022/06/30 02:42:09;;;;;;;576.03;534.80;;;14.70;99.90;;;;;;5072049;28;20031;-81
2022/06/30 02:44:35;;;;;;;582.72;539.00;;;14.60;99.90;;;;;;5068620;28;20040;-80
2022/06/30 02:47:02;;;;;;;617.65;572.97;;;14.60;99.90;;;;;;5082186;28;20345;-80
2022/06/30 02:49:28;;;;;;;606.45;560.78;;;14.50;99.90;;;;;;5078568;28;20024;-80
2022/06/30 02:51:53;;;;;;;622.92;576.90;;;14.60;99.90;;;;;;5073756;28;20391;-81
2022/06/30 02:54:19;;;;;;;625.30;579.80;;;14.60;99.90;;;;;;5077038;28;20112;-81
2022/06/30 02:56:45;;;;;;;648.90;601.35;;;14.60;99.90;;;;;;5071206;28;20036;-80
2022/06/30 02:59:11;;;;;;;566.65;526.25;;;14.60;99.90;;;;;;5073276;28;20441;-80
2022/06/30 03:01:37;;;;;;;620.08;575.45;;;14.60;99.90;;;;;;5068445;28;20033;-80
2022/06/30 03:04:03;;;;;;;559.25;518.72;;;14.40;99.90;;;;;;5062450;28;20032;-84
2022/06/30 03:06:30;;;;;;;577.63;536.53;;;14.40;99.90;;;;;;5078414;28;20046;-80
2022/06/30 03:08:57;;;;;;;537.97;501.40;;;14.40;99.90;;;;;;5085286;28;20024;-80
2022/06/30 03:11:23;;;;;;;584.42;542.13;;;14.50;99.90;;;;;;5070589;28;20581;-80
2022/06/30 03:13:49;;;;;;;597.15;551.60;;;14.40;99.90;;;;;;5079093;28;20040;-81
2022/06/30 03:16:17;;;;;;;562.92;522.33;;;14.40;99.90;;;;;;5075483;28;20123;-88
2022/06/30 03:18:43;;;;;;;578.42;537.00;;;14.40;99.90;;;;;;5076515;28;20081;-81
2022/06/30 03:21:09;;;;;;;607.22;564.05;;;14.40;99.90;;;;;;5072542;28;20040;-80
2022/06/30 03:23:35;;;;;;;636.42;589.40;;;14.40;99.90;;;;;;5071555;28;20029;-80
2022/06/30 03:26:01;;;;;;;584.28;541.53;;;14.40;99.90;;;;;;5074045;28;20079;-80
2022/06/30 03:28:27;;;;;;;639.83;593.97;;;14.40;99.90;;;;;;5054287;28;20032;-82
2022/06/30 03:30:53;;;;;;;614.35;569.58;;;14.40;99.90;;;;;;5066893;28;20540;-81
2022/06/30 03:33:18;;;;;;;718.67;663.88;;;14.40;99.90;;;;;;5079681;28;20025;-80
2022/06/30 03:35:45;;;;;;;655.60;605.67;;;14.40;99.90;;;;;;5085257;28;20043;-81
2022/06/30 03:38:12;;;;;;;603.50;558.97;;;14.40;99.90;;;;;;5081656;28;20025;-81
2022/06/30 03:40:38;;;;;;;633.58;586.92;;;14.40;99.90;;;;;;5079859;28;20032;-82
2022/06/30 03:43:04;;;;;;;626.45;580.08;;;14.50;99.90;;;;;;5075399;28;20487;-82
2022/06/30 03:45:30;;;;;;;597.63;555.10;;;14.50;99.90;;;;;;5075409;28;20060;-80
2022/06/30 03:47:58;;;;;;;632.53;585.53;;;14.50;99.90;;;;;;5073162;28;20063;-81
2022/06/30 03:50:24;;;;;;;647.42;598.33;;;14.50;99.90;;;;;;5073652;28;20024;-82
2022/06/30 03:52:50;;;;;;;590.80;545.65;;;14.60;99.90;;;;;;5075784;28;20062;-84
2022/06/30 03:55:17;;;;;;;585.70;543.42;;;14.60;99.90;;;;;;5070621;28;20032;-81
2022/06/30 03:57:42;;;;;;;665.05;615.30;;;14.60;99.90;;;;;;5070096;28;20033;-81
2022/06/30 04:00:09;;;;;;;593.70;547.42;;;14.60;99.90;;;;;;5063109;28;20037;-81
2022/06/30 04:02:34;;;;;;;666.50;614.15;;;14.60;99.90;;;;;;5073563;28;20142;-81
2022/06/30 04:05:00;;;;;;;631.22;581.40;;;14.60;99.90;;;;;;5060807;28;20123;-82
2022/06/30 04:07:25;;;;;;;679.47;625.85;;;14.70;99.90;;;;;;5063399;28;20059;-82
2022/06/30 04:09:51;;;;;;;666.75;616.05;;;14.70;99.90;;;;;;5077615;28;20123;-81
2022/06/30 04:12:17;;;;;;;656.22;604.75;;;14.90;99.90;;;;;;5077588;28;20557;-81
2022/06/30 04:14:42;;;;;;;713.13;657.78;;;15.00;99.90;;;;;;5057151;28;20043;-81
2022/06/30 04:17:08;;;;;;;700.25;644.63;;;15.00;99.90;;;;;;5075312;28;20484;-81
2022/06/30 04:19:34;;;;;;;728.97;672.35;;;15.10;99.90;;;;;;5073562;28;20024;-81
2022/06/30 04:22:00;;;;;;;727.00;668.72;;;15.10;99.90;;;;;;5057264;28;20067;-81
2022/06/30 04:24:26;;;;;;;708.35;652.45;;;15.10;99.90;;;;;;5069120;28;20071;-80
2022/06/30 04:26:51;;;;;;;704.22;647.78;;;15.20;99.90;;;;;;5066192;28;20021;-80
2022/06/30 04:29:17;;;;;;;722.42;664.90;;;15.30;99.90;;;;;;5053407;28;20037;-81
2022/06/30 04:34:27;;;;;;;691.60;635.38;;;15.40;99.90;;;;;;5076927;28;20055;-81
2022/06/30 04:36:52;;;;;;;759.17;698.15;;;15.50;99.90;;;;;;5080176;28;20036;-84
2022/06/30 04:39:18;;;;;;;776.60;714.60;;;15.60;99.90;;;;;;5078329;28;20033;-82
2022/06/30 04:41:43;;;;;;;777.00;711.70;;;15.60;99.90;;;;;;5074358;28;20103;-81
2022/06/30 04:44:09;;;;;;;790.55;726.45;;;15.70;99.90;;;;;;5078723;28;20024;-81
2022/06/30 04:46:35;;;;;;;857.42;785.10;;;15.80;99.90;;;;;;5072121;28;20032;-83
2022/06/30 04:49:00;;;;;;;847.70;775.75;;;15.90;99.90;;;;;;5075301;28;20035;-83
2022/06/30 04:51:26;;;;;;;858.03;784.72;;;16.00;99.90;;;;;;5069275;28;20454;-83
2022/06/30 04:53:52;;;;;;;824.95;756.45;;;16.20;99.90;;;;;;5064707;28;20739;-81
2022/06/30 04:56:19;;;;;;;827.80;757.65;;;16.40;99.90;;;;;;5068586;28;20032;-81
2022/06/30 04:58:45;;;;;;;857.03;784.47;;;16.50;99.90;;;;;;5068003;28;20136;-81
2022/06/30 05:01:11;;;;;;;868.85;793.92;;;16.50;99.90;;;;;;5069275;28;20487;-82
2022/06/30 05:03:37;;;;;;;836.35;764.38;;;16.50;99.90;;;;;;5075384;28;20032;-81
2022/06/30 05:06:04;;;;;;;879.97;804.13;;;16.60;99.90;;;;;;5076803;28;20085;-82
2022/06/30 05:08:30;;;;;;;878.13;800.97;;;16.70;99.90;;;;;;5074256;28;20032;-81
2022/06/30 05:10:56;;;;;;;874.55;799.80;;;16.80;99.90;;;;;;5056811;28;20112;-83
2022/06/30 05:13:22;;;;;;;891.83;814.88;;;17.00;99.90;;;;;;5061976;28;20127;-81
2022/06/30 05:15:47;;;;;;;856.38;782.17;;;17.00;99.90;;;;;;5097127;28;20035;-81
2022/06/30 05:18:13;;;;;;;872.13;794.75;;;17.10;99.90;;;;;;5068139;28;20044;-84
2022/06/30 05:20:40;;;;;;;860.22;784.00;;;17.10;99.90;;;;;;5076779;28;20053;-89
2022/06/30 05:23:07;;;;;;;901.67;820.35;;;17.20;99.90;;;;;;5099301;28;20028;-94
2022/06/30 05:28:17;;;;;;;888.30;809.17;;;17.40;99.90;;;;;;5100255;28;20047;-86
2022/06/30 05:30:43;;;;;;;925.05;842.20;;;17.40;99.90;;;;;;5093547;28;20028;-88
2022/06/30 05:33:10;;;;;;;911.55;830.15;;;17.60;99.90;;;;;;5079611;28;20119;-89
2022/06/30 05:35:35;;;;;;;965.05;875.83;;;17.70;99.90;;;;;;5102172;28;20628;-89
2022/06/30 05:38:01;;;;;;;992.90;901.67;;;17.70;99.90;;;;;;5105128;28;20373;-85
2022/06/30 05:40:29;;;;;;;924.63;841.25;;;17.90;99.90;;;;;;5100654;28;20078;-88
2022/06/30 05:42:54;;;;;;;946.42;857.60;;;17.90;99.90;;;;;;5080970;28;20040;-88
2022/06/30 05:45:20;;;;;;;991.47;898.38;;;18.10;99.90;;;;;;5100802;28;20039;-89
2022/06/30 05:47:47;;;;;;;965.78;875.22;;;18.10;99.90;;;;;;5101877;28;20028;-89
2022/06/30 05:50:14;;;;;;;886.35;805.53;;;18.40;99.90;;;;;;5080899;28;20074;-88
2022/06/30 05:52:41;;;;;;;944.60;854.78;;;18.30;99.90;;;;;;5091860;28;20020;-88
2022/06/30 05:55:07;;;;;;;796.65;727.75;;;18.30;99.90;;;;;;5075042;28;20051;-88
2022/06/30 05:57:33;;;;;;;903.03;818.50;;;18.50;99.90;;;;;;5092399;28;20039;-87
2022/06/30 05:59:59;;;;;;;914.83;826.63;;;18.60;99.90;;;;;;5082972;28;20029;-80
2022/06/30 06:02:25;;;;;;;954.25;863.53;;;18.70;99.90;;;;;;5096383;28;20028;-81
2022/06/30 06:04:50;;;;;;;942.10;852.25;;;18.80;99.90;;;;;;5085168;28;20032;-81
2022/06/30 06:07:16;;;;;;;916.25;828.80;;;18.90;99.90;;;;;;5099048;28;20041;-80
2022/06/30 06:09:42;;;;;;;886.58;801.95;;;19.10;99.90;;;;;;5092278;28;20414;-80
2022/06/30 06:12:08;;;;;;;994.50;897.88;;;19.20;99.90;;;;;;5096847;28;20312;-80
2022/06/30 06:14:34;;;;;;;966.90;872.53;;;19.30;99.90;;;;;;5077422;28;20063;-81
2022/06/30 06:16:59;;;;;;;982.83;887.22;;;19.40;99.90;;;;;;5074758;28;20031;-82
2022/06/30 06:19:25;;;;;;;1014.88;916.00;;;19.60;99.90;;;;;;5092684;28;20403;-82
2022/06/30 06:21:51;;;;;;;871.45;789.13;;;19.70;99.90;;;;;;5073348;28;20511;-81
2022/06/30 06:24:17;;;;;;;1059.07;953.42;;;19.80;99.90;;;;;;5092133;28;20499;-81
2022/06/30 06:26:43;;;;;;;1038.72;934.30;;;19.80;99.90;;;;;;5067847;28;20075;-81
2022/06/30 06:29:09;;;;;;;1040.80;935.13;;;19.90;99.90;;;;;;5085260;28;20043;-81
2022/06/30 06:31:38;;;;;;;1077.97;967.95;;;20.00;99.90;;;;;;5094747;28;20031;-81
2022/06/30 06:34:04;;;;;;;1079.75;969.78;;;20.10;99.90;;;;;;5084278;28;20070;-81
2022/06/30 06:36:30;;;;;;;1094.35;981.70;;;20.10;99.90;;;;;;5092962;28;20028;-80
2022/06/30 06:38:57;;;;;;;1114.95;995.08;;;20.20;99.90;;;;;;5099493;28;20062;-80
2022/06/30 06:41:22;;;;;;;1115.57;994.33;;;20.40;99.90;;;;;;5076579;28;20032;-81
2022/06/30 06:43:49;;;;;;;1083.70;970.65;;;20.30;99.90;;;;;;5060478;28;20844;-81
2022/06/30 06:46:15;;;;;;;1108.53;990.08;;;20.30;99.90;;;;;;5097334;28;20028;-81
2022/06/30 06:48:41;;;;;;;1147.13;997.92;;;20.40;99.90;;;;;;5096195;28;20032;-81
2022/06/30 06:51:07;;;;;;;1171.30;999.90;;;20.40;99.90;;;;;;5095511;28;20039;-83
2022/06/30 06:53:33;;;;;;;1163.35;999.90;;;20.50;99.90;;;;;;5074660;28;20046;-80
2022/06/30 06:55:59;;;;;;;1261.18;999.90;;;20.60;99.90;;;;;;5071305;28;20403;-82
2022/06/30 06:58:24;;;;;;;1136.47;997.95;;;20.70;99.90;;;;;;5091508;28;20024;-81
2022/06/30 07:00:52;;;;;;;1148.78;999.47;;;20.80;99.90;;;;;;5072742;28;20089;-81
2022/06/30 07:03:18;;;;;;;1127.40;999.60;;;20.80;99.90;;;;;;5096767;28;20149;-82
2022/06/30 07:05:44;;;;;;;1128.43;999.45;;;21.00;99.90;;;;;;5081483;28;20163;-83
2022/06/30 07:08:09;;;;;;;1152.68;999.90;;;21.10;99.90;;;;;;5102296;28;20402;-82
2022/06/30 07:10:35;;;;;;;1260.25;999.90;;;21.20;99.90;;;;;;5096907;28;20406;-81
2022/06/30 07:13:01;;;;;;;1150.43;999.90;;;21.30;99.90;;;;;;5077768;28;20512;-81
2022/06/30 07:15:26;;;;;;;1293.60;999.90;;;21.60;99.90;;;;;;5077865;28;20036;-82
2022/06/30 07:17:52;;;;;;;1160.88;999.90;;;21.80;99.90;;;;;;5112333;28;20036;-83
2022/06/30 07:20:18;;;;;;;1260.85;999.90;;;21.80;99.90;;;;;;5096922;28;20044;-81
2022/06/30 07:22:43;;;;;;;1175.95;999.90;;;21.80;99.90;;;;;;5070928;28;20040;-81
2022/06/30 07:25:09;;;;;;;1166.03;999.90;;;21.80;99.90;;;;;;5086235;28;20033;-81
2022/06/30 07:27:36;;;;;;;1121.80;996.95;;;21.90;99.90;;;;;;5095667;28;20522;-82
2022/06/30 07:30:02;;;;;;;1082.55;966.08;;;22.00;99.90;;;;;;5092812;28;20020;-81
2022/06/30 07:32:28;;;;;;;1126.03;997.60;;;22.00;99.40;;;;;;5100384;28;20036;-81
2022/06/30 07:34:54;;;;;;;1116.93;994.10;;;22.10;99.10;;;;;;5103963;28;20036;-82
2022/06/30 07:37:19;;;;;;;1135.85;999.90;;;22.20;96.60;;;;;;5078502;28;20482;-82
2022/06/30 07:39:45;;;;;;;1132.88;999.90;;;22.30;97.10;;;;;;5096380;28;20501;-82
2022/06/30 07:42:11;;;;;;;1130.57;998.97;;;22.20;96.60;;;;;;5080269;28;20034;-79
2022/06/30 07:44:36;;;;;;;1139.35;999.90;;;22.40;98.10;;;;;;5097968;28;20046;-80
2022/06/30 07:47:02;;;;;;;1126.20;998.40;;;22.50;97.50;;;;;;5074002;28;20090;-81
2022/06/30 07:49:28;;;;;;;1178.82;999.90;;;22.60;95.50;;;;;;5090792;28;20381;-81
2022/06/30 07:51:54;;;;;;;1330.85;999.90;;;22.60;97.70;;;;;;5059181;28;20241;-81
2022/06/30 07:54:20;;;;;;;1236.40;999.90;;;22.70;97.00;;;;;;5092555;28;20098;-80
2022/06/30 07:56:46;;;;;;;1481.78;999.90;;;22.70;96.40;;;;;;5045549;28;20442;-80
2022/06/30 07:59:12;;;;;;;1347.13;999.90;;;23.00;98.80;;;;;;5082757;28;20043;-81
2022/06/30 08:01:37;;;;;;;1177.80;999.90;;;23.00;94.60;;;;;;5088468;28;20031;-80
2022/06/30 08:04:03;;;;;;;1115.50;993.30;;;23.20;94.60;;;;;;5085642;28;20036;-80
2022/06/30 08:06:29;;;;;;;1162.13;999.90;;;23.50;92.60;;;;;;5098010;28;20395;-80
2022/06/30 08:08:55;;;;;;;1180.57;999.90;;;23.50;95.80;;;;;;5079254;28;20032;-80
2022/06/30 08:11:20;;;;;;;1219.32;999.90;;;23.70;94.50;;;;;;5094374;28;20074;-80
2022/06/30 08:13:46;;;;;;;1145.75;953.35;;;24.00;92.60;;;;;;5073049;28;20048;-82
2022/06/30 08:16:14;;;;;;;1140.38;999.90;;;23.80;90.80;;;;;;5094991;28;20024;-82
2022/06/30 08:18:41;;;;;;;1907.60;999.90;;;23.90;92.00;;;;;;5093611;28;20015;-82
2022/06/30 08:21:07;;;;;;;1252.30;999.90;;;23.90;91.40;;;;;;5075172;28;20048;-81
2022/06/30 08:23:33;;;;;;;1727.13;999.90;;;24.30;92.00;;;;;;5089863;28;20028;-82
2022/06/30 08:25:59;;;;;;;1087.90;981.72;;;24.50;91.60;;;;;;5086590;28;20036;-81
2022/06/30 08:28:24;;;;;;;1272.18;978.53;;;24.60;86.40;;;;;;5065673;28;20694;-82
2022/06/30 08:30:50;;;;;;;1432.90;993.95;;;24.70;86.40;;;;;;5056032;28;20027;-81
2022/06/30 08:33:17;;;;;;;1240.20;985.90;;;24.70;88.30;;;;;;5103949;28;20035;-81
2022/06/30 08:35:43;;;;;;;1347.68;953.25;;;24.80;90.10;;;;;;5098700;28;20024;-80
2022/06/30 08:38:09;;;;;;;1002.75;900.85;;;24.90;85.60;;;;;;5080947;28;20015;-81
2022/06/30 08:43:23;;;;;;;935.25;842.05;;;24.90;89.10;;;;;;5081089;28;20757;-80
2022/06/30 08:45:50;;;;;;;1803.05;999.90;;;25.00;81.30;;;;;;5072068;28;20085;-81
2022/06/30 08:48:16;;;;;;;1103.60;942.92;;;24.90;88.50;;;;;;5075837;28;20237;-81
2022/06/30 08:50:43;;;;;;;1016.17;870.47;;;24.80;82.90;;;;;;5089496;28;20028;-81
2022/06/30 08:53:10;;;;;;;1246.03;906.22;;;25.10;79.10;;;;;;5076610;28;20097;-81
2022/06/30 08:55:38;;;;;;;1511.18;959.10;;;25.30;77.70;;;;;;5088824;28;20032;-81
2022/06/30 08:58:08;;;;;;;1413.25;941.47;;;25.30;81.70;;;;;;5076833;28;20051;-81
2022/06/30 09:00:35;;;;;;;1724.22;997.00;;;25.50;77.80;;;;;;5073598;28;20233;-81
2022/06/30 09:03:02;;;;;;;1993.50;999.90;;;25.60;77.80;;;;;;5108347;28;20038;-80
2022/06/30 09:05:29;;;;;;;1727.68;975.03;;;25.70;79.00;;;;;;5106272;28;20351;-80
2022/06/30 09:07:54;;;;;;;1020.90;882.78;;;26.40;76.60;;;;;;5084331;28;20184;-82
2022/06/30 09:10:22;;;;;;;1502.00;956.58;;;26.30;65.90;;;;;;5100234;28;21044;-81
2022/06/30 09:13:00;;;;;;;1480.88;944.78;;;26.60;71.00;;;;;;5101320;28;20028;-82
2022/06/30 09:15:29;;;;;;;1688.35;998.20;;;26.60;66.60;;;;;;5098900;28;20032;-82
2022/06/30 09:17:55;;;;;;;1338.57;924.75;;;26.30;65.80;;;;;;5095398;28;20024;-82
2022/06/30 09:20:33;;;;;;;1464.65;966.92;;;26.80;65.60;;;;;;5074589;28;20035;-82
2022/06/30 09:22:59;;;;;;;1948.38;999.90;;;26.70;67.50;;;;;;5093604;28;20160;-81
2022/06/30 09:25:30;;;;;;;1494.88;945.15;;;26.70;66.20;;;;;;5091755;28;20610;-82
2022/06/30 09:27:56;;;;;;;1654.88;993.60;;;26.40;60.50;;;;;;5086811;28;20020;-82
2022/06/30 09:30:24;;;;;;;1241.65;898.63;;;26.70;64.20;;;;;;5090232;28;20035;-81
2022/06/30 09:33:06;;;;;;;1981.10;999.90;;;27.20;62.60;;;;;;5101600;28;20035;-82
2022/06/30 09:35:32;;;;;;;1564.43;983.05;;;27.30;61.20;;;;;;5084923;28;20032;-82
2022/06/30 09:38:01;;;;;;;1980.07;999.90;;;27.50;61.20;;;;;;5085553;28;20487;-82
2022/06/30 09:40:35;;;;;;;1975.35;999.90;;;27.60;59.30;;;;;;5097804;28;20040;-81
2022/06/30 09:43:02;;;;;;;1962.57;999.90;;;27.50;64.20;;;;;;5076028;28;20415;-82
2022/06/30 09:45:38;;;;;;;1568.28;982.13;;;27.00;59.40;;;;;;5093360;28;20028;-82
2022/06/30 09:48:04;;;;;;;1802.50;997.70;;;27.30;58.70;;;;;;5092999;28;20032;-82
2022/06/30 09:50:30;;;;;;;1883.57;999.90;;;27.80;57.70;;;;;;5089739;28;20064;-82
2022/06/30 09:53:04;;;;;;;1999.90;999.90;;;27.70;55.70;;;;;;5089506;28;20048;-82
2022/06/30 09:55:42;;;;;;;1999.90;999.90;;;27.70;57.30;;;;;;5089937;28;20055;-83
2022/06/30 09:58:11;;;;;;;1202.55;906.80;;;27.80;58.60;;;;;;5070295;28;20179;-81
2022/06/30 10:00:50;;;;;;;1556.25;996.47;;;28.00;49.50;;;;;;5077285;28;20036;-80
2022/06/30 10:03:17;;;;;;;1622.33;986.83;;;27.80;53.50;;;;;;5088709;28;20027;-81
2022/06/30 10:05:47;;;;;;;1111.47;890.65;;;27.90;47.90;;;;;;5103764;28;20097;-80
2022/06/30 10:08:14;;;;;;;1213.63;907.20;;;28.50;46.20;;;;;;5094992;28;20107;-82
2022/06/30 10:10:44;;;;;;;1370.35;952.35;;;28.60;47.80;;;;;;5082050;28;20027;-81
2022/06/30 10:13:16;;;;;;;1587.85;991.88;;;28.80;49.00;;;;;;5095002;28;20027;-82
2022/06/30 10:15:47;;;;;;;1340.78;936.28;;;29.10;50.70;;;;;;5092228;28;20487;-81
2022/06/30 10:18:13;;;;;;;1805.32;996.10;;;29.20;46.90;;;;;;5073239;28;20039;-81
2022/06/30 10:20:40;;;;;;;1537.00;995.05;;;28.60;51.80;;;;;;5056194;28;20633;-81
2022/06/30 10:23:09;;;;;;;1822.38;999.90;;;29.00;49.10;;;;;;5078815;28;20488;-81
2022/06/30 10:25:36;;;;;;;1999.90;999.90;;;29.10;48.60;;;;;;5072983;28;20123;-85
2022/06/30 10:28:03;;;;;;;1826.50;999.90;;;28.70;49.10;;;;;;5070398;28;20046;-85
2022/06/30 10:30:42;;;;;;;1711.05;999.90;;;28.70;48.70;;;;;;5093637;28;20436;-84
2022/06/30 10:33:40;;;;;;;1488.32;999.90;;;29.50;50.80;;;;;;5083760;28;20095;-84
2022/06/30 10:36:25;;;;;;;1880.15;999.90;;;29.40;48.60;;;;;;5060915;28;20040;-84
2022/06/30 10:39:10;;;;;;;1664.18;999.90;;;29.30;48.80;;;;;;5096898;28;20043;-86
2022/06/30 10:41:46;;;;;;;1905.20;999.90;;;29.10;44.00;;;;;;5100421;28;20023;-83
2022/06/30 10:44:33;;;;;;;1952.80;999.90;;;29.10;54.20;;;;;;5094274;28;20028;-84
2022/06/30 10:46:59;;;;;;;1462.18;989.63;;;29.40;46.90;;;;;;5075402;28;20096;-84
2022/06/30 10:49:26;;;;;;;1780.10;999.90;;;29.70;48.70;;;;;;5072313;28;20028;-85
2022/06/30 10:52:18;;;;;;;1724.80;999.33;;;29.40;47.80;;;;;;5093327;28;20024;-83
2022/06/30 10:54:45;;;;;;;1982.70;999.90;;;29.20;45.60;;;;;;5073234;28;20032;-83
2022/06/30 10:57:16;;;;;;;1579.72;999.90;;;29.80;50.90;;;;;;5071974;28;20118;-84
2022/06/30 10:59:42;;;;;;;1531.78;995.53;;;30.20;41.20;;;;;;5075096;28;20035;-84
2022/06/30 11:02:08;;;;;;;1971.47;999.90;;;29.70;41.20;;;;;;5082077;28;20028;-83
2022/06/30 11:04:50;;;;;;;1999.90;999.90;;;30.30;46.30;;;;;;5099468;28;20032;-82
2022/06/30 11:07:20;;;;;;;1943.05;999.90;;;30.50;43.70;;;;;;5065204;28;20020;-83
2022/06/30 11:09:52;;;;;;;1702.97;999.90;;;30.50;45.00;;;;;;5076958;28;20179;-84
2022/06/30 11:12:32;;;;;;;1908.60;999.90;;;31.70;39.70;;;;;;5099561;28;20040;-86
2022/06/30 11:14:58;;;;;;;1663.15;999.90;;;32.00;38.60;;;;;;5101386;28;20106;-88
2022/06/30 11:17:27;;;;;;;1751.85;945.42;;;31.70;38.00;;;;;;5079519;28;20040;-88
2022/06/30 11:20:06;;;;;;;1591.25;984.10;;;32.10;36.90;;;;;;5062783;28;20056;-89
2022/06/30 11:22:32;;;;;;;1999.90;999.90;;;32.40;35.40;;;;;;5070920;28;20416;-90
2022/06/30 11:28:13;;;;;;;1624.07;970.15;;;32.20;38.40;;;;;;5085415;28;20130;-84
2022/06/30 11:30:39;;;;;;;1925.30;997.45;;;32.60;35.60;;;;;;5090800;28;20024;-83
2022/06/30 11:33:05;;;;;;;1961.03;999.90;;;31.70;37.60;;;;;;5082014;28;20024;-82
2022/06/30 11:35:31;;;;;;;1523.97;972.00;;;31.40;39.80;;;;;;5081261;28;20050;-83
2022/06/30 11:37:57;;;;;;;1248.55;887.75;;;32.90;36.90;;;;;;5063775;28;20493;-86
2022/06/30 11:40:23;;;;;;;1625.47;999.03;;;33.70;34.00;;;;;;5062212;28;20028;-83
2022/06/30 11:42:51;;;;;;;1999.90;999.90;;;33.00;34.90;;;;;;5076838;28;20024;-83
2022/06/30 11:45:22;;;;;;;999.67;783.13;;;32.80;34.60;;;;;;5099420;28;20535;-83
2022/06/30 11:47:52;;;;;;;1064.25;821.53;;;32.40;30.80;;;;;;5074591;28;20028;-86
2022/06/30 11:50:23;;;;;;;1719.30;973.10;;;33.10;30.10;;;;;;5088568;28;20468;-83
2022/06/30 11:52:51;;;;;;;1628.95;957.03;;;33.10;33.30;;;;;;5065095;28;20548;-83
2022/06/30 11:55:19;;;;;;;1785.78;989.25;;;33.30;31.60;;;;;;5090861;28;20028;-91
2022/06/30 11:57:49;;;;;;;1380.60;884.33;;;33.10;32.80;;;;;;5076699;28;20637;-91
2022/06/30 12:00:20;;;;;;;1635.75;961.85;;;33.70;36.00;;;;;;5078340;28;20119;-86
2022/06/30 12:02:49;;;;;;;1600.40;966.80;;;33.60;34.20;;;;;;5097332;28;20028;-89
2022/06/30 12:05:17;;;;;;;1810.65;973.70;;;34.50;34.30;;;;;;5071153;28;20065;-89
2022/06/30 12:07:44;;;;;;;1999.90;999.90;;;34.60;32.90;;;;;;5080079;28;20027;-90
2022/06/30 12:10:14;;;;;;;1867.18;997.63;;;33.70;35.00;;;;;;5087389;28;20040;-90
2022/06/30 12:12:41;;;;;;;1767.82;976.47;;;34.10;34.40;;;;;;5073347;28;20040;-90
2022/06/30 12:15:15;;;;;;;1884.13;999.63;;;35.20;29.50;;;;;;5055774;28;20032;-90
2022/06/30 12:17:42;;;;;;;1222.75;848.30;;;35.50;30.00;;;;;;5070737;28;20106;-90